NCAR-RAP Real-Time Weather Data

Output produced by METARs form (17 September 2019  16:44 UTC)
found at http://weather.rap.ucar.edu/surface/
 
KILG 171551Z 05012KT 10SM CLR 25/12 A3015 RMK AO2 SLP209 T02500117
KILG 171451Z 05013G17KT 10SM SCT100 24/12 A3015 RMK AO2 SLP209 T02390122 51013
KILG 171351Z 07012KT 10SM FEW100 22/12 A3015 RMK AO2 SLP208 T02220117
KILG 171251Z 05012KT 10SM FEW100 22/12 A3013 RMK AO2 SLP202 T02220122
KILG 171151Z 07011KT 10SM SCT065 22/13 A3011 RMK AO2 SLP196 T02170128 10217 20206 53022
KILG 171051Z 06011KT 10SM FEW031 BKN065 OVC095 21/14 A3009 RMK AO2 SLP188 T02110144
KILG 170951Z AUTO 06010KT 10SM OVC065 22/18 A3007 RMK AO2 SLP180 T02170183
KILG 170851Z AUTO 04007KT 10SM SCT050 21/18 A3005 RMK AO2 SLP174 T02060178 51001
KILG 170751Z AUTO 01004KT 10SM OVC050 21/18 A3005 RMK AO2 SLP173 T02110183
KILG 170651Z AUTO 05005KT 10SM FEW050 21/19 A3005 RMK AO2 SLP173 T02110189
KILG 170551Z AUTO 05006KT 10SM BKN050 21/19 A3004 RMK AO2 SLP172 T02110194 10256 20211 51006
KILG 170451Z AUTO 06007KT 10SM BKN120 22/19 A3004 RMK AO2 SLP171 T02170189 403000167
KILG 170351Z AUTO 07007KT 10SM FEW080 OVC120 23/18 A3004 RMK AO2 SLP170 T02280183
KILG 170251Z AUTO 09003KT 10SM BKN110 23/19 A3003 RMK AO2 SLP166 T02330189 53009
KILG 170051Z 15004KT 10SM OVC065 24/19 A3001 RMK AO2 SLP159 T02440194
KILG 162351Z 17004KT 10SM BKN070 BKN080 OVC120 26/15 A3000 RMK AO2 SLP158 T02560150 10300 20256 53007
KILG 162251Z 00000KT 10SM OVC065 27/17 A2999 RMK AO2 SLP156 T02670172
KILG 162151Z 18007KT 10SM BKN065 OVC120 27/17 A2998 RMK AO2 SLP150 T02720172
KILG 162051Z 17007KT 10SM BKN120 28/17 A2998 RMK AO2 SLP151 T02780172 56015
KILG 161951Z 14006KT 10SM OVC070 29/17 A2999 RMK AO2 SLP153 T02940167